Time,TemperatureF,DewpointF,PressureIn,WindDirection,WindDirectionDegrees,WindSpeedMPH,WindSpeedGustMPH,Humidity,HourlyPrecipIn,Conditions,Clouds,dailyrainin,SoftwareType,DateUTC
2013-03-06 00:00:00,32.5,25.8,30.04,NW,315,3.0,13.0,76,0.00,,---,0.00,VWS V14.01,2013-03-06 06:00:00,
2013-03-06 00:30:00,32.4,25.4,30.05,NW,315,3.0,12.0,75,0.00,,---,0.00,VWS V14.01,2013-03-06 06:30:00,
2013-03-06 01:00:00,32.1,24.4,30.06,NNW,338,4.0,20.0,73,0.00,,---,0.00,VWS V14.01,2013-03-06 07:00:00,
2013-03-06 01:30:00,31.9,25.2,30.08,NNW,338,3.0,12.0,76,0.00,,---,0.00,VWS V14.01,2013-03-06 07:30:00,
2013-03-06 02:00:00,31.6,24.0,30.09,NNW,338,3.0,13.0,73,0.00,,---,0.00,VWS V14.01,2013-03-06 08:00:00,
2013-03-06 02:30:00,31.5,23.9,30.09,NW,315,3.0,14.0,73,0.00,,---,0.00,VWS V14.01,2013-03-06 08:30:00,
2013-03-06 03:00:00,31.3,23.3,30.09,NW,315,3.0,11.0,72,0.00,,---,0.00,VWS V14.01,2013-03-06 09:00:00,
2013-03-06 03:30:00,31.0,23.7,30.10,NW,315,2.0,12.0,74,0.00,,---,0.00,VWS V14.01,2013-03-06 09:30:00,
2013-03-06 04:00:00,30.8,23.8,30.12,NNW,338,3.0,14.0,75,0.00,,---,0.00,VWS V14.01,2013-03-06 10:00:00,
2013-03-06 04:30:00,30.7,24.0,30.15,NNW,338,2.0,11.0,76,0.00,,---,0.00,VWS V14.01,2013-03-06 10:30:00,
2013-03-06 05:00:00,30.7,24.0,30.16,NW,315,2.0,8.0,76,0.00,,---,0.00,VWS V14.01,2013-03-06 11:00:00,
2013-03-06 05:30:00,30.7,24.0,30.18,NNW,338,2.0,11.0,76,0.00,,---,0.00,VWS V14.01,2013-03-06 11:30:00,
2013-03-06 06:00:00,30.7,23.7,30.19,North,0,2.0,11.0,75,0.00,,---,0.00,VWS V14.01,2013-03-06 12:00:00,
2013-03-06 06:30:00,30.7,23.7,30.20,North,0,2.0,11.0,75,0.00,,---,0.00,VWS V14.01,2013-03-06 12:30:00,
2013-03-06 07:00:00,30.7,23.7,30.21,NNW,338,2.0,11.0,75,0.00,,---,0.00,VWS V14.01,2013-03-06 13:00:00,
2013-03-06 07:30:00,30.7,23.1,30.23,North,0,3.0,14.0,73,0.00,,---,0.00,VWS V14.01,2013-03-06 13:30:00,
2013-03-06 08:00:00,30.8,23.2,30.25,North,0,2.0,9.0,73,0.00,,---,0.00,VWS V14.01,2013-03-06 14:00:00,
2013-03-06 08:30:00,31.7,23.7,30.25,NNW,338,2.0,11.0,72,0.00,,---,0.00,VWS V14.01,2013-03-06 14:30:00,
2013-03-06 09:00:00,31.8,23.8,30.26,NNW,338,2.0,8.0,72,0.00,,---,0.00,VWS V14.01,2013-03-06 15:00:00,
2013-03-06 09:30:00,33.4,24.3,30.26,North,0,4.0,13.0,69,0.00,,---,0.00,VWS V14.01,2013-03-06 15:30:00,
2013-03-06 10:00:00,35.1,25.3,30.27,NNW,338,3.0,13.0,67,0.00,,---,0.00,VWS V14.01,2013-03-06 16:00:00,
2013-03-06 10:30:00,35.0,24.4,30.27,North,0,3.0,9.0,65,0.00,,---,0.00,VWS V14.01,2013-03-06 16:30:00,
2013-03-06 11:18:00,35.0,24.4,30.27,North,0,3.0,9.0,65,0.00,,---,0.00,VWS V14.01,2013-03-06 17:18:00,
2013-03-06 11:23:00,36.7,24.9,30.27,NW,313,3.0,9.0,62,0.00,,---,0.00,VWS V14.01,2013-03-06 17:23:00,
2013-03-06 11:28:00,37.9,26.5,30.27,North,5,3.0,10.0,63,0.00,,---,0.00,VWS V14.01,2013-03-06 17:28:00,
2013-03-06 11:33:00,37.6,25.8,30.27,NNW,340,1.0,8.0,62,0.00,,---,0.00,VWS V14.01,2013-03-06 17:33:00,
2013-03-06 11:38:00,37.5,25.3,30.27,West,279,4.0,8.0,61,0.00,,---,0.00,VWS V14.01,2013-03-06 17:38:00,
2013-03-06 11:43:00,36.8,24.6,30.27,North,9,1.0,8.0,61,0.00,,---,0.00,VWS V14.01,2013-03-06 17:43:00,
2013-03-06 11:48:00,36.7,24.5,30.27,North,5,1.0,8.0,61,0.00,,---,0.00,VWS V14.01,2013-03-06 17:48:00,
2013-03-06 11:53:00,37.4,25.6,30.27,North,355,4.0,8.0,62,0.00,,---,0.00,VWS V14.01,2013-03-06 17:53:00,
2013-03-06 11:58:00,37.0,25.2,30.27,NW,323,4.0,8.0,62,0.00,,---,0.00,VWS V14.01,2013-03-06 17:58:00,
2013-03-06 12:03:00,37.7,26.3,30.27,SSW,199,0.0,5.0,63,0.00,,---,0.00,VWS V14.01,2013-03-06 18:03:00,
2013-03-06 12:08:00,37.0,24.8,30.27,WNW,295,0.0,8.0,61,0.00,,---,0.00,VWS V14.01,2013-03-06 18:08:00,
2013-03-06 12:13:00,37.1,25.3,30.26,NNW,328,2.0,8.0,62,0.00,,---,0.00,VWS V14.01,2013-03-06 18:13:00,
2013-03-06 12:18:00,36.9,25.5,30.26,WNW,290,2.0,8.0,63,0.00,,---,0.00,VWS V14.01,2013-03-06 18:18:00,
2013-03-06 12:23:00,37.0,25.6,30.26,WNW,296,2.0,8.0,63,0.00,,---,0.00,VWS V14.01,2013-03-06 18:23:00,
2013-03-06 12:28:00,36.7,24.9,30.26,NNW,345,3.0,8.0,62,0.00,,---,0.00,VWS V14.01,2013-03-06 18:28:00,
2013-03-06 12:33:00,36.5,25.1,30.26,NW,319,0.0,3.0,63,0.00,,---,0.00,VWS V14.01,2013-03-06 18:33:00,
2013-03-06 12:38:00,38.2,26.3,30.26,NNW,331,3.0,5.0,62,0.00,,---,0.00,VWS V14.01,2013-03-06 18:38:00,
2013-03-06 12:43:00,37.7,25.1,30.26,WNW,288,0.0,7.0,60,0.00,,---,0.00,VWS V14.01,2013-03-06 18:43:00,
2013-03-06 12:48:00,37.9,25.7,30.26,North,360,0.0,7.0,61,0.00,,---,0.00,VWS V14.01,2013-03-06 18:48:00,
2013-03-06 12:53:00,38.1,25.9,30.26,NW,306,0.0,7.0,61,0.00,,---,0.00,VWS V14.01,2013-03-06 18:53:00,
2013-03-06 12:58:00,37.9,25.3,30.26,NNW,330,0.0,7.0,60,0.00,,---,0.00,VWS V14.01,2013-03-06 18:58:00,
2013-03-06 13:03:00,37.3,25.1,30.25,NNW,331,0.0,5.0,61,0.00,,---,0.00,VWS V14.01,2013-03-06 19:03:00,
2013-03-06 13:08:00,37.6,25.0,30.25,NW,317,1.0,5.0,60,0.00,,---,0.00,VWS V14.01,2013-03-06 19:08:00,
2013-03-06 13:13:00,37.5,25.7,30.25,North,355,1.0,6.0,62,0.00,,---,0.00,VWS V14.01,2013-03-06 19:13:00,
2013-03-06 13:18:00,37.3,25.1,30.25,North,355,0.0,6.0,61,0.00,,---,0.00,VWS V14.01,2013-03-06 19:18:00,
2013-03-06 13:23:00,37.1,25.3,30.25,WNW,292,1.0,6.0,62,0.00,,---,0.00,VWS V14.01,2013-03-06 19:23:00,
2013-03-06 13:28:00,37.2,25.4,30.25,SSW,209,5.0,7.0,62,0.00,,---,0.00,VWS V14.01,2013-03-06 19:28:00,
2013-03-06 13:33:00,37.3,25.1,30.25,North,360,0.0,4.0,61,0.00,,---,0.00,VWS V14.01,2013-03-06 19:33:00,
2013-03-06 13:38:00,38.4,25.7,30.24,North,11,4.0,6.0,60,0.00,,---,0.00,VWS V14.01,2013-03-06 19:38:00,
2013-03-06 13:43:00,37.9,25.7,30.24,NNE,22,1.0,6.0,61,0.00,,---,0.00,VWS V14.01,2013-03-06 19:43:00,
2013-03-06 13:48:00,38.4,25.7,30.24,WNW,289,0.0,8.0,60,0.00,,---,0.00,VWS V14.01,2013-03-06 19:48:00,
2013-03-06 13:53:00,38.3,25.6,30.24,WNW,292,4.0,8.0,60,0.00,,---,0.00,VWS V14.01,2013-03-06 19:53:00,
2013-03-06 13:58:00,38.3,25.2,30.24,WNW,298,0.0,8.0,59,0.00,,---,0.00,VWS V14.01,2013-03-06 19:58:00,
2013-03-06 14:03:00,38.2,25.5,30.24,NNW,342,0.0,7.0,60,0.00,,---,0.00,VWS V14.01,2013-03-06 20:03:00,
2013-03-06 14:08:00,37.8,24.8,30.24,North,11,2.0,7.0,59,0.00,,---,0.00,VWS V14.01,2013-03-06 20:08:00,
2013-03-06 14:13:00,37.3,24.7,30.24,NE,38,3.0,7.0,60,0.00,,---,0.00,VWS V14.01,2013-03-06 20:13:00,
2013-03-06 14:18:00,37.5,24.9,30.25,NW,315,3.0,7.0,60,0.00,,---,0.00,VWS V14.01,2013-03-06 20:18:00,
2013-03-06 14:23:00,37.9,24.9,30.25,North,360,1.0,7.0,59,0.00,,---,0.00,VWS V14.01,2013-03-06 20:23:00,
2013-03-06 14:28:00,37.7,25.5,30.25,NW,309,4.0,7.0,61,0.00,,---,0.00,VWS V14.01,2013-03-06 20:28:00,
2013-03-06 14:33:00,37.6,24.6,30.25,NNW,344,1.0,4.0,59,0.00,,---,0.00,VWS V14.01,2013-03-06 20:33:00,
2013-03-06 14:38:00,37.9,25.7,30.25,North,355,3.0,4.0,61,0.00,,---,0.00,VWS V14.01,2013-03-06 20:38:00,
2013-03-06 14:43:00,37.6,25.0,30.25,NNW,341,2.0,5.0,60,0.00,,---,0.00,VWS V14.01,2013-03-06 20:43:00,
2013-03-06 14:48:00,37.7,25.1,30.25,NW,315,0.0,5.0,60,0.00,,---,0.00,VWS V14.01,2013-03-06 20:48:00,
2013-03-06 14:53:00,39.2,25.7,30.25,WSW,257,1.0,5.0,58,0.00,,---,0.00,VWS V14.01,2013-03-06 20:53:00,
2013-03-06 14:58:00,39.3,25.8,30.25,WNW,286,2.0,8.0,58,0.00,,---,0.00,VWS V14.01,2013-03-06 20:58:00,
2013-03-06 15:03:00,39.3,25.8,30.25,SSW,194,2.0,9.0,58,0.00,,---,0.00,VWS V14.01,2013-03-06 21:03:00,
2013-03-06 15:08:00,40.2,26.2,30.25,WNW,290,3.0,9.0,57,0.00,,---,0.00,VWS V14.01,2013-03-06 21:08:00,
2013-03-06 15:13:00,39.3,24.9,30.25,NW,317,1.0,9.0,56,0.00,,---,0.00,VWS V14.01,2013-03-06 21:13:00,
2013-03-06 15:18:00,40.1,26.1,30.25,North,5,2.0,9.0,57,0.00,,---,0.00,VWS V14.01,2013-03-06 21:18:00,
2013-03-06 15:23:00,39.1,25.2,30.25,NNE,30,2.0,9.0,57,0.00,,---,0.00,VWS V14.01,2013-03-06 21:23:00,
2013-03-06 15:28:00,38.3,24.8,30.25,WNW,285,2.0,9.0,58,0.00,,---,0.00,VWS V14.01,2013-03-06 21:28:00,
2013-03-06 15:33:00,38.1,24.6,30.25,WSW,246,1.0,5.0,58,0.00,,---,0.00,VWS V14.01,2013-03-06 21:33:00,
2013-03-06 15:38:00,38.0,24.5,30.25,NW,312,2.0,8.0,58,0.00,,---,0.00,VWS V14.01,2013-03-06 21:38:00,
2013-03-06 15:43:00,38.4,25.7,30.25,SSW,207,1.0,8.0,60,0.00,,---,0.00,VWS V14.01,2013-03-06 21:43:00,
2013-03-06 15:48:00,38.4,25.3,30.25,WNW,294,0.0,8.0,59,0.00,,---,0.00,VWS V14.01,2013-03-06 21:48:00,
2013-03-06 15:53:00,38.3,25.2,30.25,NNW,348,0.0,8.0,59,0.00,,---,0.00,VWS V14.01,2013-03-06 21:53:00,
2013-03-06 15:58:00,38.3,25.2,30.25,North,5,4.0,8.0,59,0.00,,---,0.00,VWS V14.01,2013-03-06 21:58:00,
2013-03-06 16:03:00,38.0,25.0,30.25,North,360,2.0,4.0,59,0.00,,---,0.00,VWS V14.01,2013-03-06 22:03:00,
2013-03-06 16:08:00,37.6,24.6,30.25,NNW,336,4.0,7.0,59,0.00,,---,0.00,VWS V14.01,2013-03-06 22:08:00,
2013-03-06 16:13:00,37.6,24.6,30.24,NNW,342,2.0,7.0,59,0.00,,---,0.00,VWS V14.01,2013-03-06 22:13:00,
2013-03-06 16:18:00,37.6,24.6,30.24,NNW,344,4.0,7.0,59,0.00,,---,0.00,VWS V14.01,2013-03-06 22:18:00,
2013-03-06 16:23:00,37.4,24.4,30.24,NW,325,1.0,7.0,59,0.00,,---,0.00,VWS V14.01,2013-03-06 22:23:00,
2013-03-06 16:28:00,37.6,24.6,30.25,NW,323,3.0,7.0,59,0.00,,---,0.00,VWS V14.01,2013-03-06 22:28:00,
2013-03-06 16:33:00,37.6,24.6,30.25,NW,326,1.0,5.0,59,0.00,,---,0.00,VWS V14.01,2013-03-06 22:33:00,
2013-03-06 16:38:00,37.4,24.4,30.25,NW,314,4.0,5.0,59,0.00,,---,0.00,VWS V14.01,2013-03-06 22:38:00,
2013-03-06 16:43:00,37.3,24.3,30.25,North,355,0.0,5.0,59,0.00,,---,0.00,VWS V14.01,2013-03-06 22:43:00,
2013-03-06 16:48:00,37.1,24.5,30.25,North,355,0.0,5.0,60,0.00,,---,0.00,VWS V14.01,2013-03-06 22:48:00,
2013-03-06 16:53:00,37.1,24.5,30.24,NNW,338,1.0,5.0,60,0.00,,---,0.00,VWS V14.01,2013-03-06 22:53:00,
2013-03-06 16:58:00,37.0,24.4,30.24,NNW,338,2.0,5.0,60,0.00,,---,0.00,VWS V14.01,2013-03-06 22:58:00,
2013-03-06 17:03:00,36.9,24.3,30.25,NNW,346,0.0,4.0,60,0.00,,---,0.00,VWS V14.01,2013-03-06 23:03:00,
2013-03-06 17:08:00,36.8,24.2,30.25,NW,325,2.0,4.0,60,0.00,,---,0.00,VWS V14.01,2013-03-06 23:08:00,
2013-03-06 17:13:00,36.7,24.1,30.25,WNW,302,4.0,7.0,60,0.00,,---,0.00,VWS V14.01,2013-03-06 23:13:00,
2013-03-06 17:18:00,36.5,24.3,30.25,NNW,335,1.0,7.0,61,0.00,,---,0.00,VWS V14.01,2013-03-06 23:18:00,
2013-03-06 17:23:00,36.5,24.3,30.25,NW,323,2.0,7.0,61,0.00,,---,0.00,VWS V14.01,2013-03-06 23:23:00,
2013-03-06 17:28:00,36.3,24.1,30.25,NNW,340,4.0,7.0,61,0.00,,---,0.00,VWS V14.01,2013-03-06 23:28:00,
2013-03-06 17:33:00,36.2,24.1,30.24,North,355,1.0,2.0,61,0.00,,---,0.00,VWS V14.01,2013-03-06 23:33:00,
2013-03-06 17:38:00,36.1,24.4,30.24,NNW,333,0.0,4.0,62,0.00,,---,0.00,VWS V14.01,2013-03-06 23:38:00,
2013-03-06 17:43:00,36.0,24.3,30.24,NW,320,0.0,4.0,62,0.00,,---,0.00,VWS V14.01,2013-03-06 23:43:00,
2013-03-06 17:48:00,35.8,24.1,30.25,NNW,342,0.0,4.0,62,0.00,,---,0.00,VWS V14.01,2013-03-06 23:48:00,
2013-03-06 17:53:00,35.6,24.3,30.25,NNW,340,0.0,4.0,63,0.00,,---,0.00,VWS V14.01,2013-03-06 23:53:00,
2013-03-06 17:58:00,35.4,24.1,30.25,NNW,341,0.0,4.0,63,0.00,,---,0.00,VWS V14.01,2013-03-06 23:58:00,
2013-03-06 18:03:00,35.2,23.9,30.25,NW,315,0.0,3.0,63,0.00,,---,0.00,VWS V14.01,2013-03-07 00:03:00,
2013-03-06 18:08:00,34.8,23.9,30.25,NW,320,0.0,3.0,64,0.00,,---,0.00,VWS V14.01,2013-03-07 00:08:00,
2013-03-06 18:13:00,34.6,23.7,30.25,NW,320,0.0,3.0,64,0.00,,---,0.00,VWS V14.01,2013-03-07 00:13:00,
2013-03-06 18:18:00,34.5,23.6,30.25,WNW,292,0.0,5.0,64,0.00,,---,0.00,VWS V14.01,2013-03-07 00:18:00,
2013-03-06 18:23:00,34.4,23.5,30.25,WNW,292,0.0,5.0,64,0.00,,---,0.00,VWS V14.01,2013-03-07 00:23:00,
2013-03-06 18:28:00,34.0,23.5,30.25,NW,320,0.0,5.0,65,0.00,,---,0.00,VWS V14.01,2013-03-07 00:28:00,
2013-03-06 18:33:00,34.0,23.5,30.25,WNW,288,0.0,6.0,65,0.00,,---,0.00,VWS V14.01,2013-03-07 00:33:00,
2013-03-06 18:38:00,33.9,23.4,30.25,NNW,336,0.0,6.0,65,0.00,,---,0.00,VWS V14.01,2013-03-07 00:38:00,
2013-03-06 18:43:00,33.8,23.7,30.25,NNW,327,0.0,6.0,66,0.00,,---,0.00,VWS V14.01,2013-03-07 00:43:00,
2013-03-06 18:48:00,33.7,23.6,30.25,NNW,327,0.0,6.0,66,0.00,,---,0.00,VWS V14.01,2013-03-07 00:48:00,
2013-03-06 18:53:00,33.5,23.4,30.25,NNW,327,0.0,6.0,66,0.00,,---,0.00,VWS V14.01,2013-03-07 00:53:00,
2013-03-06 18:58:00,33.3,23.5,30.25,NNW,341,0.0,6.0,67,0.00,,---,0.00,VWS V14.01,2013-03-07 00:58:00,
2013-03-06 19:03:00,33.2,23.5,30.25,NNW,341,0.0,1.0,67,0.00,,---,0.00,VWS V14.01,2013-03-07 01:03:00,
2013-03-06 19:08:00,33.0,23.6,30.25,NNW,342,0.0,2.0,68,0.00,,---,0.00,VWS V14.01,2013-03-07 01:08:00,
2013-03-06 19:13:00,32.8,23.4,30.25,NNW,342,0.0,2.0,68,0.00,,---,0.00,VWS V14.01,2013-03-07 01:13:00,
2013-03-06 19:18:00,32.6,23.2,30.25,NNW,342,0.0,2.0,68,0.00,,---,0.00,VWS V14.01,2013-03-07 01:18:00,
2013-03-06 19:23:00,32.4,23.0,30.25,NNW,342,0.0,2.0,68,0.00,,---,0.00,VWS V14.01,2013-03-07 01:23:00,
2013-03-06 19:28:00,32.3,23.3,30.25,NNW,342,1.0,2.0,69,0.00,,---,0.00,VWS V14.01,2013-03-07 01:28:00,
2013-03-06 19:33:00,32.2,23.2,30.24,NNW,348,0.0,2.0,69,0.00,,---,0.00,VWS V14.01,2013-03-07 01:33:00,
2013-03-06 19:38:00,32.1,23.4,30.24,North,355,0.0,2.0,70,0.00,,---,0.00,VWS V14.01,2013-03-07 01:38:00,
2013-03-06 19:43:00,32.0,23.3,30.24,North,355,0.0,2.0,70,0.00,,---,0.00,VWS V14.01,2013-03-07 01:43:00,
2013-03-06 19:48:00,31.8,23.1,30.24,North,355,0.0,2.0,70,0.00,,---,0.00,VWS V14.01,2013-03-07 01:48:00,
2013-03-06 19:53:00,31.7,23.4,30.24,North,355,0.0,2.0,71,0.00,,---,0.00,VWS V14.01,2013-03-07 01:53:00,
2013-03-06 19:58:00,31.5,23.2,30.25,North,355,0.0,2.0,71,0.00,,---,0.00,VWS V14.01,2013-03-07 01:58:00,
2013-03-06 20:03:00,31.2,23.2,30.25,North,355,0.0,0.0,72,0.00,,---,0.00,VWS V14.01,2013-03-07 02:03:00,
2013-03-06 20:08:00,31.1,23.5,30.25,North,355,0.0,1.0,73,0.00,,---,0.00,VWS V14.01,2013-03-07 02:08:00,
2013-03-06 20:13:00,30.7,23.1,30.25,North,355,0.0,1.0,73,0.00,,---,0.00,VWS V14.01,2013-03-07 02:13:00,
2013-03-06 20:18:00,30.3,22.7,30.25,North,355,0.0,1.0,73,0.00,,---,0.00,VWS V14.01,2013-03-07 02:18:00,
2013-03-06 20:23:00,30.1,22.8,30.25,North,355,0.0,1.0,74,0.00,,---,0.00,VWS V14.01,2013-03-07 02:23:00,
2013-03-06 20:28:00,30.0,22.7,30.25,North,355,0.0,1.0,74,0.00,,---,0.00,VWS V14.01,2013-03-07 02:28:00,
2013-03-06 20:33:00,30.0,22.7,30.25,North,355,0.0,0.0,74,0.00,,---,0.00,VWS V14.01,2013-03-07 02:33:00,
2013-03-06 20:38:00,29.8,22.5,30.25,North,355,0.0,0.0,74,0.00,,---,0.00,VWS V14.01,2013-03-07 02:38:00,
2013-03-06 20:43:00,29.7,22.8,30.26,North,355,0.0,0.0,75,0.00,,---,0.00,VWS V14.01,2013-03-07 02:43:00,
2013-03-06 20:48:00,29.6,22.7,30.26,North,355,0.0,0.0,75,0.00,,---,0.00,VWS V14.01,2013-03-07 02:48:00,
2013-03-06 20:53:00,29.5,22.6,30.26,North,355,0.0,0.0,75,0.00,,---,0.00,VWS V14.01,2013-03-07 02:53:00,
2013-03-06 20:58:00,29.1,22.2,30.25,North,355,0.0,0.0,75,0.00,,---,0.00,VWS V14.01,2013-03-07 02:58:00,
2013-03-06 21:03:00,28.9,22.3,30.25,North,355,0.0,0.0,76,0.00,,---,0.00,VWS V14.01,2013-03-07 03:03:00,
2013-03-06 21:08:00,28.8,22.5,30.25,North,355,0.0,0.0,77,0.00,,---,0.00,VWS V14.01,2013-03-07 03:08:00,
2013-03-06 21:13:00,28.8,22.5,30.26,North,355,0.0,0.0,77,0.00,,---,0.00,VWS V14.01,2013-03-07 03:13:00,
2013-03-06 21:18:00,28.8,22.5,30.26,North,355,0.0,0.0,77,0.00,,---,0.00,VWS V14.01,2013-03-07 03:18:00,
2013-03-06 21:23:00,28.6,22.3,30.26,North,355,0.0,0.0,77,0.00,,---,0.00,VWS V14.01,2013-03-07 03:23:00,
2013-03-06 21:28:00,28.5,22.2,30.26,North,355,0.0,0.0,77,0.00,,---,0.00,VWS V14.01,2013-03-07 03:28:00,
2013-03-06 21:33:00,28.2,22.2,30.26,North,355,0.0,0.0,78,0.00,,---,0.00,VWS V14.01,2013-03-07 03:33:00,
2013-03-06 21:38:00,28.1,22.1,30.26,North,355,0.0,0.0,78,0.00,,---,0.00,VWS V14.01,2013-03-07 03:38:00,
2013-03-06 21:43:00,28.1,22.4,30.26,North,355,0.0,0.0,79,0.00,,---,0.00,VWS V14.01,2013-03-07 03:43:00,
2013-03-06 21:48:00,28.0,22.3,30.26,North,355,0.0,0.0,79,0.00,,---,0.00,VWS V14.01,2013-03-07 03:48:00,
2013-03-06 21:53:00,27.9,22.2,30.26,North,355,0.0,0.0,79,0.00,,---,0.00,VWS V14.01,2013-03-07 03:53:00,
2013-03-06 21:58:00,27.7,22.0,30.26,North,355,0.0,0.0,79,0.00,,---,0.00,VWS V14.01,2013-03-07 03:58:00,
2013-03-06 22:03:00,27.5,22.1,30.26,North,355,0.0,0.0,80,0.00,,---,0.00,VWS V14.01,2013-03-07 04:03:00,
2013-03-06 22:08:00,27.5,22.1,30.26,North,355,0.0,0.0,80,0.00,,---,0.00,VWS V14.01,2013-03-07 04:08:00,
2013-03-06 22:13:00,27.3,22.0,30.26,North,355,0.0,0.0,80,0.00,,---,0.00,VWS V14.01,2013-03-07 04:13:00,
2013-03-06 22:18:00,27.1,22.1,30.26,North,355,0.0,0.0,81,0.00,,---,0.00,VWS V14.01,2013-03-07 04:18:00,
2013-03-06 22:23:00,27.0,22.0,30.25,North,355,0.0,0.0,81,0.00,,---,0.00,VWS V14.01,2013-03-07 04:23:00,
2013-03-06 22:28:00,26.9,22.1,30.25,North,355,0.0,0.0,82,0.00,,---,0.00,VWS V14.01,2013-03-07 04:28:00,
2013-03-06 22:33:00,26.9,22.1,30.25,North,355,0.0,0.0,82,0.00,,---,0.00,VWS V14.01,2013-03-07 04:33:00,
2013-03-06 22:38:00,26.9,22.1,30.25,North,355,0.0,0.0,82,0.00,,---,0.00,VWS V14.01,2013-03-07 04:38:00,
2013-03-06 22:43:00,26.9,22.1,30.25,North,355,0.0,0.0,82,0.00,,---,0.00,VWS V14.01,2013-03-07 04:43:00,
2013-03-06 22:48:00,26.9,22.1,30.25,North,355,0.0,0.0,82,0.00,,---,0.00,VWS V14.01,2013-03-07 04:48:00,
2013-03-06 22:53:00,26.7,22.0,30.25,North,355,0.0,0.0,82,0.00,,---,0.00,VWS V14.01,2013-03-07 04:53:00,
2013-03-06 22:58:00,26.5,21.8,30.25,North,355,0.0,0.0,82,0.00,,---,0.00,VWS V14.01,2013-03-07 04:58:00,
2013-03-06 23:00:00,26.5,21.8,30.25,North,355,0.0,0.0,82,0.00,,---,0.00,VWS V14.01,2013-03-07 05:00:00,
2013-03-06 23:01:00,26.5,21.8,30.25,North,355,0.0,0.0,82,0.00,,---,0.00,VWS V14.01,2013-03-07 05:01:00,
2013-03-06 23:26:00,26.1,21.6,30.25,North,355,0.0,0.0,83,0.00,,---,0.00,VWS V14.01,2013-03-07 05:26:00,
2013-03-06 23:31:00,25.9,21.7,30.25,North,355,0.0,0.0,84,0.00,,---,0.00,VWS V14.01,2013-03-07 05:31:00,
2013-03-06 23:36:00,25.8,21.6,30.25,North,355,0.0,0.0,84,0.00,,---,0.00,VWS V14.01,2013-03-07 05:36:00,
2013-03-06 23:41:00,25.8,21.6,30.25,North,355,0.0,0.0,84,0.00,,---,0.00,VWS V14.01,2013-03-07 05:41:00,
2013-03-06 23:46:00,25.6,21.5,30.25,North,355,0.0,0.0,84,0.00,,---,0.00,VWS V14.01,2013-03-07 05:46:00,
2013-03-06 23:51:00,25.4,21.5,30.25,North,355,0.0,0.0,85,0.00,,---,0.00,VWS V14.01,2013-03-07 05:51:00,
2013-03-06 23:56:00,25.4,21.5,30.25,North,355,0.0,0.0,85,0.00,,---,0.00,VWS V14.01,2013-03-07 05:56:00,